Time;durP1;ratioP1;P1;durP2;ratioP2;P2;SDS_P1;SDS_P2;PMS_P1;PMS_P2;Temp;Humidity;BMP_temperature;BMP_pressure;BME280_temperature;BME280_humidity;BME280_pressure;Samples;Min_cycle;Max_cycle;Signal;HPM_P1;HPM_P2
2023/07/25 00:01:11;;;;;;;8.88;2.72;;;12.90;99.90;;;;;;5149567;27;20138;-82
2023/07/25 00:03:38;;;;;;;7.40;2.55;;;12.90;99.90;;;;;;5133206;27;20123;-82
2023/07/25 00:06:04;;;;;;;7.53;2.45;;;12.90;99.90;;;;;;5132659;27;20039;-83
2023/07/25 00:08:32;;;;;;;7.85;2.33;;;12.90;99.90;;;;;;5133195;27;20049;-82
2023/07/25 00:10:59;;;;;;;11.70;2.50;;;12.90;99.90;;;;;;5115996;27;20376;-82
2023/07/25 00:13:26;;;;;;;9.98;2.80;;;12.90;99.90;;;;;;5118166;28;20625;-82
2023/07/25 00:15:53;;;;;;;11.55;2.83;;;12.80;99.90;;;;;;5112828;28;20075;-82
2023/07/25 00:18:20;;;;;;;10.75;3.03;;;12.90;99.90;;;;;;5095604;28;20081;-81
2023/07/25 00:20:46;;;;;;;11.77;3.13;;;12.80;99.90;;;;;;5112937;28;20051;-82
2023/07/25 00:23:13;;;;;;;9.77;2.65;;;12.80;99.90;;;;;;5095378;28;20040;-83
2023/07/25 00:25:40;;;;;;;7.15;2.53;;;12.70;99.90;;;;;;5095978;28;20047;-82
2023/07/25 00:28:07;;;;;;;8.38;2.72;;;12.70;99.90;;;;;;5112220;28;20059;-82
2023/07/25 00:30:33;;;;;;;15.48;3.30;;;12.70;99.90;;;;;;5112515;28;20039;-83
2023/07/25 00:33:00;;;;;;;10.25;2.63;;;12.70;99.90;;;;;;5096658;28;20126;-82
2023/07/25 00:35:27;;;;;;;10.50;2.85;;;12.70;99.90;;;;;;5128784;28;20572;-83
2023/07/25 00:37:53;;;;;;;9.57;3.35;;;12.70;99.90;;;;;;5146218;28;20876;-82
2023/07/25 00:40:20;;;;;;;6.60;2.65;;;12.70;99.90;;;;;;5111931;28;20054;-82
2023/07/25 00:42:52;;;;;;;8.65;2.67;;;12.70;99.90;;;;;;5112174;28;20043;-82
2023/07/25 00:45:19;;;;;;;10.63;3.05;;;12.70;99.90;;;;;;5127723;28;20039;-83
2023/07/25 00:47:46;;;;;;;12.00;2.60;;;12.70;99.90;;;;;;5111526;28;20407;-82
2023/07/25 00:50:13;;;;;;;9.38;2.92;;;12.70;99.90;;;;;;5145811;28;20226;-82
2023/07/25 00:52:39;;;;;;;7.68;2.85;;;12.60;99.90;;;;;;5111989;28;20164;-82
2023/07/25 00:55:07;;;;;;;13.27;2.88;;;12.60;99.90;;;;;;5111588;28;20048;-82
2023/07/25 00:57:33;;;;;;;5.90;2.50;;;12.60;99.90;;;;;;5113031;27;20495;-82
2023/07/25 01:00:00;;;;;;;12.32;2.88;;;12.60;99.90;;;;;;5111637;28;20040;-82
2023/07/25 01:02:27;;;;;;;10.55;2.70;;;12.60;99.90;;;;;;5111304;28;20039;-82
2023/07/25 01:04:54;;;;;;;8.05;2.70;;;12.60;99.90;;;;;;5095474;28;20043;-83
2023/07/25 01:07:21;;;;;;;9.05;2.70;;;12.60;99.90;;;;;;5111258;28;20031;-82
2023/07/25 01:09:48;;;;;;;9.25;2.83;;;12.60;99.90;;;;;;5111909;28;20032;-82
2023/07/25 01:12:14;;;;;;;8.75;2.58;;;12.50;99.90;;;;;;5111392;28;20047;-82
2023/07/25 01:14:41;;;;;;;5.47;2.78;;;12.50;99.90;;;;;;5126782;28;20039;-82
2023/07/25 01:17:17;;;;;;;11.27;2.47;;;12.50;99.90;;;;;;5127264;28;20039;-82
2023/07/25 01:19:49;;;;;;;7.65;2.80;;;12.50;99.90;;;;;;5129682;28;20043;-82
2023/07/25 01:22:16;;;;;;;7.20;2.33;;;12.40;99.90;;;;;;5127815;28;20053;-83
2023/07/25 01:24:47;;;;;;;8.38;2.60;;;12.40;99.90;;;;;;5111576;28;20039;-82
2023/07/25 01:27:15;;;;;;;6.78;2.38;;;12.50;99.90;;;;;;5110806;28;20104;-82
2023/07/25 01:29:42;;;;;;;7.50;2.95;;;12.40;99.90;;;;;;5111631;28;20054;-82
2023/07/25 01:32:10;;;;;;;8.35;3.28;;;12.40;99.90;;;;;;5111488;28;20138;-82
2023/07/25 01:34:37;;;;;;;7.78;2.75;;;12.40;99.90;;;;;;5128132;28;20231;-82
2023/07/25 01:37:06;;;;;;;7.95;2.30;;;12.30;99.90;;;;;;5128098;28;20048;-82
2023/07/25 01:39:32;;;;;;;12.55;3.17;;;12.30;99.90;;;;;;5132956;27;20046;-82
2023/07/25 01:41:59;;;;;;;8.55;2.45;;;12.30;99.90;;;;;;5127360;27;20415;-83
2023/07/25 01:44:26;;;;;;;9.82;2.70;;;12.30;99.90;;;;;;5110807;28;20067;-82
2023/07/25 01:46:55;;;;;;;5.72;2.63;;;12.30;99.90;;;;;;5111069;28;20080;-82
2023/07/25 01:49:22;;;;;;;6.63;2.58;;;12.30;99.90;;;;;;5110508;28;20044;-82
2023/07/25 01:51:49;;;;;;;9.30;2.47;;;12.20;99.90;;;;;;5095180;27;20041;-83
2023/07/25 01:54:16;;;;;;;12.23;2.65;;;12.20;99.90;;;;;;5093895;28;20487;-82
2023/07/25 01:56:43;;;;;;;8.15;2.60;;;12.20;99.90;;;;;;5111375;28;20039;-82
2023/07/25 01:59:11;;;;;;;6.32;2.40;;;12.20;99.90;;;;;;5094115;28;20046;-83
2023/07/25 02:01:37;;;;;;;11.00;2.70;;;12.20;99.90;;;;;;5110302;28;20460;-82
2023/07/25 02:04:04;;;;;;;15.98;2.90;;;12.10;99.90;;;;;;5110665;28;20097;-82
2023/07/25 02:06:31;;;;;;;8.07;2.85;;;12.10;99.90;;;;;;5124354;28;20061;-82
2023/07/25 02:08:57;;;;;;;8.65;2.65;;;12.10;99.90;;;;;;5093948;28;20038;-82
2023/07/25 02:11:24;;;;;;;8.38;2.60;;;12.10;99.90;;;;;;5110316;28;20134;-82
2023/07/25 02:13:51;;;;;;;8.35;2.50;;;12.10;99.90;;;;;;5110747;28;20043;-82
2023/07/25 02:16:17;;;;;;;11.43;2.80;;;12.10;99.90;;;;;;5093768;28;20151;-83
2023/07/25 02:18:44;;;;;;;9.68;2.95;;;12.00;99.90;;;;;;5127353;28;20035;-83
2023/07/25 02:21:11;;;;;;;11.02;3.08;;;12.10;99.90;;;;;;5127312;28;20043;-83
2023/07/25 02:23:37;;;;;;;10.38;3.40;;;12.00;99.90;;;;;;5126702;28;20035;-83
2023/07/25 02:26:04;;;;;;;8.25;3.15;;;12.00;99.90;;;;;;5126009;28;20114;-83
2023/07/25 02:28:31;;;;;;;13.65;4.20;;;12.00;99.90;;;;;;5102427;28;20035;-83
2023/07/25 02:30:57;;;;;;;11.07;4.05;;;12.10;99.90;;;;;;5110833;28;20411;-83
2023/07/25 02:33:24;;;;;;;12.23;3.85;;;12.10;99.90;;;;;;5109917;28;20131;-83
2023/07/25 02:35:51;;;;;;;10.95;4.38;;;12.10;99.90;;;;;;5110571;28;20067;-83
2023/07/25 02:38:18;;;;;;;14.82;3.83;;;12.10;99.90;;;;;;5110499;28;20118;-83
2023/07/25 02:40:45;;;;;;;9.57;3.70;;;12.10;99.90;;;;;;5110270;28;20078;-83
2023/07/25 02:43:12;;;;;;;10.00;3.95;;;12.20;99.90;;;;;;5110212;28;20153;-84
2023/07/25 02:45:38;;;;;;;12.65;3.35;;;12.20;99.90;;;;;;5109905;28;20199;-84
2023/07/25 02:48:05;;;;;;;10.00;3.25;;;12.30;99.90;;;;;;5101993;28;20044;-83
2023/07/25 02:50:32;;;;;;;8.45;3.30;;;12.30;99.90;;;;;;5110181;28;20139;-83
2023/07/25 02:52:59;;;;;;;11.93;3.17;;;12.30;99.90;;;;;;5093514;28;20135;-83
2023/07/25 02:55:26;;;;;;;8.18;3.00;;;12.40;99.90;;;;;;5093259;28;20052;-82
2023/07/25 02:57:52;;;;;;;8.13;2.95;;;12.40;99.90;;;;;;5110184;28;20039;-83
2023/07/25 03:00:19;;;;;;;8.30;3.08;;;12.40;99.90;;;;;;5111956;28;20044;-84
2023/07/25 03:02:46;;;;;;;11.02;3.38;;;12.40;99.90;;;;;;5113272;28;20043;-83
2023/07/25 03:05:12;;;;;;;9.45;2.80;;;12.40;99.90;;;;;;5147286;28;20031;-83
2023/07/25 03:07:39;;;;;;;7.70;3.28;;;12.50;99.90;;;;;;5130124;28;20130;-83
2023/07/25 03:10:06;;;;;;;10.52;3.05;;;12.50;99.90;;;;;;5113576;28;20035;-83
2023/07/25 03:12:33;;;;;;;10.98;3.05;;;12.50;99.90;;;;;;5103056;28;20039;-83
2023/07/25 03:15:00;;;;;;;9.20;2.92;;;12.50;99.90;;;;;;5093166;28;20043;-83
2023/07/25 03:17:27;;;;;;;7.22;2.80;;;12.60;99.90;;;;;;5109501;28;20044;-84
2023/07/25 03:19:54;;;;;;;9.30;2.95;;;12.50;99.90;;;;;;5126899;28;20075;-84
2023/07/25 03:22:21;;;;;;;7.70;3.08;;;12.60;99.90;;;;;;5113658;28;20116;-83
2023/07/25 03:24:48;;;;;;;10.27;3.50;;;12.60;99.90;;;;;;5109648;28;20036;-83
2023/07/25 03:27:17;;;;;;;10.32;3.33;;;12.60;99.90;;;;;;5126285;28;20032;-84
2023/07/25 03:29:44;;;;;;;10.00;3.03;;;12.60;99.90;;;;;;5108982;28;20506;-84
2023/07/25 03:32:10;;;;;;;6.47;2.42;;;12.60;99.90;;;;;;5131393;28;20039;-83
2023/07/25 03:34:37;;;;;;;12.10;2.85;;;12.70;99.90;;;;;;5112176;28;20083;-83
2023/07/25 03:37:04;;;;;;;10.30;2.97;;;12.70;99.90;;;;;;5113216;28;20445;-83
2023/07/25 03:39:31;;;;;;;8.07;2.92;;;12.70;99.90;;;;;;5146722;27;20126;-83
2023/07/25 03:41:58;;;;;;;6.38;2.83;;;12.70;99.90;;;;;;5131375;27;20126;-83
2023/07/25 03:44:24;;;;;;;8.52;2.55;;;12.70;99.90;;;;;;5116643;27;20135;-83
2023/07/25 03:46:51;;;;;;;9.75;3.22;;;12.70;99.90;;;;;;5133330;27;20046;-83
2023/07/25 03:49:18;;;;;;;14.18;3.38;;;12.70;99.90;;;;;;5117129;27;20043;-84
2023/07/25 03:51:44;;;;;;;7.05;2.83;;;12.80;99.90;;;;;;5116355;27;20039;-83
2023/07/25 03:54:11;;;;;;;9.90;2.85;;;12.80;99.90;;;;;;5112517;28;20035;-83
2023/07/25 03:56:38;;;;;;;7.65;2.70;;;12.80;99.90;;;;;;5113083;28;20040;-83
2023/07/25 03:59:05;;;;;;;8.88;3.00;;;12.80;99.90;;;;;;5112890;28;20036;-83
2023/07/25 04:01:31;;;;;;;9.18;3.00;;;12.80;99.90;;;;;;5112954;28;20040;-84
2023/07/25 04:03:58;;;;;;;12.60;2.92;;;12.80;99.90;;;;;;5096650;28;20055;-83
2023/07/25 04:06:25;;;;;;;12.07;3.47;;;12.80;99.90;;;;;;5129713;28;20032;-83
2023/07/25 04:08:52;;;;;;;13.68;3.10;;;12.80;99.90;;;;;;5129377;28;20557;-83
2023/07/25 04:11:19;;;;;;;6.57;2.60;;;12.90;99.90;;;;;;5129703;28;20036;-83
2023/07/25 04:13:45;;;;;;;11.48;2.72;;;13.00;99.90;;;;;;5132584;27;20038;-84
2023/07/25 04:16:12;;;;;;;13.43;3.58;;;12.90;99.90;;;;;;5103974;28;20044;-83
2023/07/25 04:18:39;;;;;;;10.95;2.53;;;13.00;99.90;;;;;;5112147;28;20480;-84
2023/07/25 04:21:06;;;;;;;9.52;3.10;;;13.00;99.90;;;;;;5112937;28;20042;-83
2023/07/25 04:23:32;;;;;;;7.35;2.50;;;13.00;99.90;;;;;;5112755;28;20043;-84
2023/07/25 04:25:59;;;;;;;12.68;3.20;;;13.10;99.90;;;;;;5111823;28;20047;-83
2023/07/25 04:28:26;;;;;;;10.73;2.83;;;13.10;99.90;;;;;;5112314;28;20127;-83
2023/07/25 04:30:52;;;;;;;13.35;2.70;;;13.10;99.90;;;;;;5112207;28;20408;-83
2023/07/25 04:33:19;;;;;;;8.27;2.25;;;13.20;99.90;;;;;;5112456;28;20079;-83
2023/07/25 04:35:46;;;;;;;9.90;2.75;;;13.20;99.90;;;;;;5115317;27;20035;-83
2023/07/25 04:38:16;;;;;;;7.10;2.17;;;13.20;99.90;;;;;;5132859;27;20430;-83
2023/07/25 04:40:43;;;;;;;7.35;2.58;;;13.20;99.90;;;;;;5115668;27;20039;-83
2023/07/25 04:43:16;;;;;;;7.20;2.40;;;13.30;99.90;;;;;;5148788;27;20082;-83
2023/07/25 04:45:43;;;;;;;7.90;2.20;;;13.30;99.90;;;;;;5112102;28;20071;-83
2023/07/25 04:48:09;;;;;;;9.77;2.17;;;13.30;99.90;;;;;;5111834;28;20060;-83
2023/07/25 04:50:36;;;;;;;6.25;2.20;;;13.40;99.90;;;;;;5095389;28;20035;-83
2023/07/25 04:53:03;;;;;;;7.25;2.53;;;13.40;99.90;;;;;;5094626;28;20130;-83
2023/07/25 04:55:30;;;;;;;10.82;2.60;;;13.40;99.90;;;;;;5145752;27;20078;-84
2023/07/25 04:57:57;;;;;;;8.07;2.50;;;13.40;99.90;;;;;;5095254;28;20523;-83
2023/07/25 05:00:23;;;;;;;5.90;2.10;;;13.40;99.90;;;;;;5146082;28;20062;-83
2023/07/25 05:02:50;;;;;;;8.43;2.28;;;13.50;99.90;;;;;;5128427;28;20081;-83
2023/07/25 05:05:17;;;;;;;5.07;2.05;;;13.50;99.90;;;;;;5095433;28;20078;-83
2023/07/25 05:07:43;;;;;;;6.75;2.20;;;13.50;99.90;;;;;;5122961;28;20043;-83
2023/07/25 05:10:10;;;;;;;8.90;2.10;;;13.50;99.90;;;;;;5111380;28;20119;-83
2023/07/25 05:12:37;;;;;;;8.43;2.33;;;13.60;99.90;;;;;;5111492;28;20047;-83
2023/07/25 05:15:04;;;;;;;8.38;2.20;;;13.60;99.90;;;;;;5094758;28;20043;-83
2023/07/25 05:17:31;;;;;;;11.15;2.53;;;13.60;99.90;;;;;;5095337;28;20074;-83
2023/07/25 05:19:58;;;;;;;14.02;3.03;;;13.70;99.90;;;;;;5095601;28;20082;-83
2023/07/25 05:22:24;;;;;;;7.68;2.78;;;13.70;99.90;;;;;;5111475;28;20074;-83
2023/07/25 05:24:51;;;;;;;8.35;2.45;;;13.70;99.90;;;;;;5111433;28;20038;-83
2023/07/25 05:27:18;;;;;;;7.53;2.08;;;13.80;99.90;;;;;;5145468;28;20039;-82
2023/07/25 05:29:44;;;;;;;11.13;2.78;;;13.80;99.90;;;;;;5114786;28;20031;-83
2023/07/25 05:32:11;;;;;;;9.02;2.58;;;13.80;99.90;;;;;;5111261;28;20035;-83
2023/07/25 05:34:38;;;;;;;7.07;2.33;;;13.70;99.90;;;;;;5111239;28;20491;-83
2023/07/25 05:37:06;;;;;;;9.38;2.78;;;13.70;99.90;;;;;;5094159;28;20032;-83
2023/07/25 05:39:32;;;;;;;5.05;2.30;;;13.70;99.90;;;;;;5095606;28;20471;-83
2023/07/25 05:41:59;;;;;;;5.60;2.20;;;13.80;99.90;;;;;;5094183;28;20046;-83
2023/07/25 05:44:26;;;;;;;7.68;2.70;;;13.80;99.90;;;;;;5128053;28;20070;-84
2023/07/25 05:46:52;;;;;;;4.78;2.60;;;13.90;99.90;;;;;;5094242;28;20053;-83
2023/07/25 05:49:19;;;;;;;9.15;2.38;;;13.90;99.90;;;;;;5094657;28;20054;-83
2023/07/25 05:51:46;;;;;;;6.65;2.17;;;13.90;99.90;;;;;;5110558;28;20557;-83
2023/07/25 05:54:15;;;;;;;8.10;2.38;;;13.90;99.90;;;;;;5110808;28;20039;-83
2023/07/25 05:56:42;;;;;;;9.13;2.70;;;13.90;99.90;;;;;;5127409;28;20097;-83
2023/07/25 05:59:09;;;;;;;6.82;2.42;;;13.90;99.90;;;;;;5110213;28;20548;-83
2023/07/25 06:01:39;;;;;;;8.27;2.80;;;13.90;99.90;;;;;;5113005;27;20073;-83
2023/07/25 06:04:06;;;;;;;10.20;2.70;;;13.90;99.90;;;;;;5130383;27;20123;-83
2023/07/25 06:06:32;;;;;;;8.75;2.88;;;13.90;99.90;;;;;;5148165;27;20081;-83
2023/07/25 06:08:59;;;;;;;9.73;2.58;;;13.90;99.90;;;;;;5114151;27;20138;-83
2023/07/25 06:11:27;;;;;;;9.75;2.78;;;13.90;99.90;;;;;;5130665;27;20042;-83
2023/07/25 06:13:54;;;;;;;6.28;2.42;;;13.90;99.90;;;;;;5130814;27;20035;-83
2023/07/25 06:16:21;;;;;;;7.95;2.17;;;14.00;99.90;;;;;;5131192;27;20039;-84
2023/07/25 06:18:48;;;;;;;8.65;2.53;;;14.10;99.90;;;;;;5131113;27;20484;-84
2023/07/25 06:21:14;;;;;;;8.00;2.13;;;14.20;99.90;;;;;;5131022;27;20046;-84
2023/07/25 06:23:41;;;;;;;6.32;2.20;;;14.30;99.90;;;;;;5130858;27;20516;-84
2023/07/25 06:26:08;;;;;;;5.97;1.73;;;14.30;99.90;;;;;;5102710;28;20066;-84
2023/07/25 06:28:35;;;;;;;6.20;1.90;;;14.40;99.90;;;;;;5093827;28;20089;-84
2023/07/25 06:31:02;;;;;;;8.88;2.45;;;14.50;99.90;;;;;;5093385;28;20050;-84
2023/07/25 06:33:29;;;;;;;4.78;1.95;;;14.50;99.90;;;;;;5094202;28;20048;-84
2023/07/25 06:35:56;;;;;;;9.70;2.20;;;14.60;99.90;;;;;;5127166;28;20050;-84
2023/07/25 06:38:22;;;;;;;6.88;1.80;;;14.60;99.90;;;;;;5110669;28;20070;-84
2023/07/25 06:40:49;;;;;;;10.27;1.95;;;14.70;99.90;;;;;;5113300;28;20088;-84
2023/07/25 06:43:16;;;;;;;7.50;1.70;;;14.80;99.90;;;;;;5126516;28;20539;-83
2023/07/25 06:45:42;;;;;;;6.68;2.08;;;14.90;99.90;;;;;;5099217;28;20484;-84
2023/07/25 06:48:09;;;;;;;7.43;1.67;;;14.90;99.90;;;;;;5092902;28;20836;-84
2023/07/25 06:50:36;;;;;;;9.23;1.70;;;15.00;99.90;;;;;;5110256;28;20075;-84
2023/07/25 06:53:04;;;;;;;8.25;1.92;;;15.10;99.90;;;;;;5109896;28;20500;-84
2023/07/25 06:55:31;;;;;;;7.63;1.80;;;15.20;99.90;;;;;;5093625;28;20042;-85
2023/07/25 06:57:57;;;;;;;10.15;1.95;;;15.20;99.90;;;;;;5124280;28;20134;-85
2023/07/25 07:00:24;;;;;;;7.60;1.63;;;15.30;99.90;;;;;;5124851;28;20058;-84
2023/07/25 07:02:51;;;;;;;7.32;1.60;;;15.40;99.90;;;;;;5125568;28;20044;-85
2023/07/25 07:05:17;;;;;;;7.50;1.60;;;15.30;99.90;;;;;;5126682;28;20078;-83
2023/07/25 07:07:44;;;;;;;5.90;1.63;;;15.50;99.90;;;;;;5128693;28;20498;-82
2023/07/25 07:10:11;;;;;;;7.55;1.40;;;15.60;99.90;;;;;;5111911;28;20031;-83
2023/07/25 07:12:45;;;;;;;14.90;2.00;;;15.60;99.90;;;;;;5104963;28;20050;-82
2023/07/25 07:15:12;;;;;;;10.75;1.65;;;15.60;99.90;;;;;;5134960;28;20035;-83
2023/07/25 07:17:39;;;;;;;4.15;1.23;;;15.70;99.90;;;;;;5114035;27;20042;-83
2023/07/25 07:20:06;;;;;;;3.95;1.30;;;15.80;99.90;;;;;;5116238;27;20043;-84
2023/07/25 07:22:33;;;;;;;7.85;1.58;;;15.90;99.90;;;;;;5116611;27;20107;-83
2023/07/25 07:25:00;;;;;;;7.05;1.50;;;16.00;99.90;;;;;;5115348;27;20043;-84
2023/07/25 07:27:26;;;;;;;4.68;1.20;;;16.00;99.90;;;;;;5116272;27;20167;-83
2023/07/25 07:29:53;;;;;;;4.32;1.40;;;16.00;99.90;;;;;;5115177;27;20035;-83
2023/07/25 07:32:20;;;;;;;4.90;1.45;;;16.10;99.90;;;;;;5131103;27;20066;-84
2023/07/25 07:34:46;;;;;;;5.68;1.42;;;16.10;99.90;;;;;;5110419;27;20051;-85
2023/07/25 07:37:13;;;;;;;6.32;1.50;;;16.20;99.90;;;;;;5124009;27;20032;-84
2023/07/25 07:39:41;;;;;;;4.95;1.38;;;16.20;99.90;;;;;;5103735;28;20039;-84
2023/07/25 07:42:08;;;;;;;7.78;1.38;;;16.30;99.90;;;;;;5097005;28;20054;-84
2023/07/25 07:44:34;;;;;;;7.57;1.45;;;16.40;99.90;;;;;;5095860;28;20043;-84
2023/07/25 07:47:04;;;;;;;7.22;1.40;;;16.40;99.90;;;;;;5094707;28;20032;-84
2023/07/25 07:49:33;;;;;;;7.82;1.27;;;16.50;99.90;;;;;;5095751;28;20127;-83
2023/07/25 07:52:01;;;;;;;4.25;1.40;;;16.60;99.90;;;;;;5124478;27;20563;-84
2023/07/25 07:54:28;;;;;;;5.50;1.40;;;16.60;99.90;;;;;;5114545;27;20050;-84
2023/07/25 07:56:54;;;;;;;5.30;1.20;;;16.80;99.90;;;;;;5115311;27;20039;-84
2023/07/25 07:59:21;;;;;;;6.45;1.33;;;16.80;99.90;;;;;;5112124;28;20043;-84
2023/07/25 08:01:47;;;;;;;5.78;1.48;;;16.80;99.90;;;;;;5112914;28;20086;-84
2023/07/25 08:04:14;;;;;;;4.90;1.10;;;16.70;99.90;;;;;;5129114;28;20058;-84
2023/07/25 08:06:41;;;;;;;5.32;1.17;;;16.70;99.90;;;;;;5105835;28;20039;-83
2023/07/25 08:09:08;;;;;;;4.90;1.20;;;16.70;99.90;;;;;;5096172;28;20633;-84
2023/07/25 08:11:34;;;;;;;4.43;1.20;;;16.90;99.90;;;;;;5129832;28;20560;-84
2023/07/25 08:14:01;;;;;;;12.68;1.20;;;17.10;99.90;;;;;;5132299;27;20122;-83
2023/07/25 08:16:31;;;;;;;5.75;0.90;;;17.10;99.90;;;;;;5119942;27;20042;-83
2023/07/25 08:18:58;;;;;;;5.88;1.00;;;16.90;99.90;;;;;;5106825;27;20043;-83
2023/07/25 08:21:25;;;;;;;4.80;0.98;;;16.80;99.90;;;;;;5117945;28;20043;-84
2023/07/25 08:23:52;;;;;;;6.63;1.33;;;16.90;99.90;;;;;;5095917;28;20043;-84
2023/07/25 08:26:19;;;;;;;5.70;1.15;;;17.00;99.90;;;;;;5128897;28;20036;-84
2023/07/25 08:28:48;;;;;;;5.07;1.08;;;17.10;99.90;;;;;;5098665;27;20088;-84
2023/07/25 08:31:15;;;;;;;5.00;1.10;;;17.20;99.90;;;;;;5141222;27;20035;-83
2023/07/25 08:33:44;;;;;;;4.47;0.93;;;17.40;99.90;;;;;;5132520;27;20387;-84
2023/07/25 08:36:11;;;;;;;5.10;0.90;;;17.40;99.90;;;;;;5149332;27;20384;-84
2023/07/25 08:38:38;;;;;;;5.50;1.10;;;17.40;99.90;;;;;;5132162;27;20035;-84
2023/07/25 08:41:23;;;;;;;3.22;0.80;;;17.40;99.90;;;;;;5124229;27;20050;-84
2023/07/25 08:43:52;;;;;;;;;;;17.30;99.90;;;;;;5139969;27;20091;-84
2023/07/25 08:46:20;;;;;;;5.07;0.90;;;17.40;99.90;;;;;;5139372;27;20488;-84
2023/07/25 08:48:48;;;;;;;4.05;0.95;;;17.60;99.90;;;;;;5139062;27;20452;-84
2023/07/25 08:51:22;;;;;;;6.35;1.60;;;17.80;99.90;;;;;;5147265;27;20114;-84
2023/07/25 08:54:14;;;;;;;2.22;0.80;;;17.90;99.90;;;;;;5112298;28;20083;-83
2023/07/25 08:56:42;;;;;;;5.82;1.33;;;18.00;99.90;;;;;;5135752;27;20210;-83
2023/07/25 08:59:10;;;;;;;7.03;1.25;;;18.20;99.90;;;;;;5154504;27;20043;-84
2023/07/25 09:01:37;;;;;;;3.92;0.93;;;18.40;99.90;;;;;;5128424;27;20058;-84
2023/07/25 09:04:04;;;;;;;5.45;1.15;;;18.50;99.90;;;;;;5132472;27;20043;-83
2023/07/25 09:06:31;;;;;;;4.45;0.95;;;18.60;99.90;;;;;;5131845;27;20062;-84
2023/07/25 09:08:58;;;;;;;4.47;1.02;;;18.80;99.90;;;;;;5149422;27;20036;-83
2023/07/25 09:11:26;;;;;;;2.75;0.90;;;18.80;99.90;;;;;;5140833;28;20491;-83
2023/07/25 09:13:53;;;;;;;6.30;1.00;;;18.60;99.90;;;;;;5095581;28;20058;-84
2023/07/25 09:16:19;;;;;;;6.72;1.20;;;18.20;99.90;;;;;;5111194;28;20487;-83
2023/07/25 09:18:46;;;;;;;5.53;0.80;;;18.00;99.90;;;;;;5111537;28;20055;-84
2023/07/25 09:21:15;;;;;;;6.45;1.10;;;18.00;99.90;;;;;;5094591;28;20384;-83
2023/07/25 09:23:52;;;;;;;3.65;0.98;;;18.20;99.90;;;;;;5128973;28;20039;-83
2023/07/25 09:26:22;;;;;;;3.58;1.00;;;18.40;99.90;;;;;;5110972;28;20039;-83
2023/07/25 09:28:51;;;;;;;2.80;0.90;;;18.50;99.90;;;;;;5111782;28;20044;-84
2023/07/25 09:31:22;;;;;;;4.50;1.02;;;18.50;99.90;;;;;;5111309;28;20043;-84
2023/07/25 09:33:54;;;;;;;5.10;1.13;;;18.70;99.90;;;;;;5111198;28;20044;-84
2023/07/25 09:36:21;;;;;;;2.25;0.95;;;18.90;99.90;;;;;;5128572;28;20144;-83
2023/07/25 09:38:53;;;;;;;2.72;0.93;;;18.90;99.90;;;;;;5127424;28;20050;-84
2023/07/25 09:41:24;;;;;;;3.30;0.88;;;19.10;99.90;;;;;;5127805;28;20047;-87
2023/07/25 09:43:52;;;;;;;3.42;0.80;;;19.10;99.90;;;;;;5128579;27;20066;-84
2023/07/25 09:46:19;;;;;;;3.45;1.00;;;19.00;99.90;;;;;;5147496;27;20046;-84
2023/07/25 09:48:50;;;;;;;4.68;1.02;;;18.90;99.90;;;;;;5152849;27;20403;-83
2023/07/25 09:51:17;;;;;;;4.13;0.93;;;18.70;99.90;;;;;;5131026;27;20605;-84
2023/07/25 09:53:49;;;;;;;3.60;0.95;;;18.60;99.90;;;;;;5110955;28;20804;-84
2023/07/25 09:56:16;;;;;;;5.32;0.90;;;18.70;99.90;;;;;;5129714;28;20036;-85
2023/07/25 09:58:42;;;;;;;3.33;0.75;;;18.60;99.90;;;;;;5094378;28;20103;-84
2023/07/25 10:01:10;;;;;;;7.35;0.85;;;18.80;99.90;;;;;;5127838;28;20039;-86
2023/07/25 10:03:38;;;;;;;5.32;0.77;;;18.90;99.90;;;;;;5130062;27;20038;-84
2023/07/25 10:06:06;;;;;;;3.03;0.80;;;19.10;99.90;;;;;;5136013;27;20772;-84
2023/07/25 10:08:34;;;;;;;2.55;0.93;;;19.40;99.90;;;;;;5110726;28;20040;-85
2023/07/25 10:11:02;;;;;;;2.95;0.75;;;19.60;99.90;;;;;;5094548;28;20399;-84
2023/07/25 10:13:32;;;;;;;3.00;0.82;;;19.60;99.90;;;;;;5110423;28;20046;-84
2023/07/25 10:16:01;;;;;;;3.08;0.70;;;19.40;99.90;;;;;;5128208;28;20758;-84
2023/07/25 10:18:33;;;;;;;5.38;0.90;;;19.30;99.90;;;;;;5144492;28;20079;-84
2023/07/25 10:21:02;;;;;;;2.88;0.90;;;19.10;99.90;;;;;;5127559;28;20043;-84
2023/07/25 10:23:35;;;;;;;3.53;0.90;;;19.30;99.90;;;;;;5093904;28;20047;-84
2023/07/25 10:26:12;;;;;;;3.70;0.75;;;19.50;99.90;;;;;;5135240;27;20038;-85
2023/07/25 10:28:42;;;;;;;3.55;0.73;;;19.80;99.90;;;;;;5147696;27;20032;-85
2023/07/25 10:31:24;;;;;;;2.15;0.80;;;20.00;99.90;;;;;;5147545;27;20055;-84
2023/07/25 10:33:54;;;;;;;4.18;0.88;;;19.90;99.90;;;;;;5147500;27;20035;-84
2023/07/25 10:36:25;;;;;;;5.40;1.23;;;19.60;99.90;;;;;;5147688;28;20490;-84
2023/07/25 10:39:04;;;;;;;4.20;0.90;;;19.30;99.90;;;;;;5131010;28;20046;-84
2023/07/25 10:41:31;;;;;;;4.30;0.90;;;19.20;99.90;;;;;;5164699;28;20035;-85
2023/07/25 10:44:00;;;;;;;2.90;0.98;;;19.10;99.90;;;;;;5143798;28;20050;-84
2023/07/25 10:46:29;;;;;;;6.97;1.20;;;18.90;99.90;;;;;;5113902;28;20035;-84
2023/07/25 10:49:00;;;;;;;4.68;1.00;;;18.80;99.90;;;;;;5147299;27;20095;-86
2023/07/25 10:51:51;;;;;;;3.92;1.23;;;18.60;99.90;;;;;;5150943;27;20082;-86
2023/07/25 10:54:22;;;;;;;3.70;1.10;;;18.50;99.90;;;;;;5151692;27;20039;-86
2023/07/25 10:57:17;;;;;;;5.32;1.02;;;18.50;99.90;;;;;;5135572;27;20035;-86
2023/07/25 11:00:09;;;;;;;4.95;0.93;;;18.70;99.90;;;;;;5152238;27;20475;-85
2023/07/25 11:02:39;;;;;;;5.03;1.00;;;18.70;99.90;;;;;;5136596;27;20039;-90
2023/07/25 11:05:12;;;;;;;3.20;1.00;;;18.80;99.90;;;;;;5152227;27;20035;-86
2023/07/25 11:07:40;;;;;;;4.38;0.98;;;19.00;99.90;;;;;;5152442;27;20043;-86
2023/07/25 11:10:07;;;;;;;5.70;1.02;;;19.10;99.90;;;;;;5152273;27;20075;-85
2023/07/25 11:12:34;;;;;;;4.80;1.00;;;18.90;99.90;;;;;;5117666;27;20039;-86
2023/07/25 11:15:01;;;;;;;4.65;1.10;;;18.80;99.90;;;;;;5113936;28;20044;-86
2023/07/25 11:17:28;;;;;;;7.72;1.00;;;18.50;99.90;;;;;;5114464;28;20415;-86
2023/07/25 11:20:19;;;;;;;3.67;0.93;;;18.50;99.90;;;;;;5132126;28;20047;-86
2023/07/25 11:22:50;;;;;;;4.93;1.10;;;18.60;99.90;;;;;;5131973;28;20051;-86
2023/07/25 11:25:17;;;;;;;3.25;0.82;;;18.60;99.90;;;;;;5132003;27;20470;-86
2023/07/25 11:27:45;;;;;;;3.33;0.93;;;18.80;99.90;;;;;;5151235;27;20479;-86
2023/07/25 11:30:15;;;;;;;2.97;1.10;;;18.90;99.90;;;;;;5152148;27;20038;-86
2023/07/25 11:32:53;;;;;;;2.90;0.98;;;19.00;99.90;;;;;;5151566;27;20035;-86
2023/07/25 11:35:21;;;;;;;5.07;1.20;;;19.20;99.90;;;;;;5141143;28;20044;-87
2023/07/25 11:37:51;;;;;;;3.03;0.90;;;19.30;99.90;;;;;;5114139;28;20416;-85
2023/07/25 11:40:27;;;;;;;3.75;0.88;;;19.60;99.90;;;;;;5114199;28;20192;-85
2023/07/25 11:42:55;;;;;;;5.90;0.95;;;19.90;99.90;;;;;;5114483;28;20047;-86
2023/07/25 11:45:22;;;;;;;4.07;1.15;;;19.80;99.90;;;;;;5152522;27;20063;-85
2023/07/25 11:47:51;;;;;;;4.30;0.90;;;19.90;99.90;;;;;;5117370;27;20038;-86
2023/07/25 11:50:19;;;;;;;5.40;1.00;;;19.70;99.90;;;;;;5134012;27;20058;-86
2023/07/25 11:52:47;;;;;;;5.43;1.23;;;19.30;99.90;;;;;;5117155;27;20043;-85
2023/07/25 11:55:14;;;;;;;3.00;0.95;;;19.10;99.90;;;;;;5148975;27;20043;-86
2023/07/25 11:57:41;;;;;;;5.75;1.20;;;19.10;99.90;;;;;;5097115;28;20035;-86
2023/07/25 12:00:12;;;;;;;4.70;1.10;;;19.00;99.90;;;;;;5130548;28;20040;-85
2023/07/25 12:02:40;;;;;;;3.70;0.90;;;19.20;99.90;;;;;;5096899;28;20040;-86
2023/07/25 12:05:25;;;;;;;5.03;0.95;;;19.10;99.90;;;;;;5130007;28;20498;-86
2023/07/25 12:07:53;;;;;;;5.43;1.13;;;19.10;99.90;;;;;;5145883;28;20043;-85
2023/07/25 12:10:27;;;;;;;2.95;0.80;;;19.20;99.90;;;;;;5113535;28;20307;-85
2023/07/25 12:12:55;;;;;;;3.58;1.02;;;19.30;99.90;;;;;;5113628;28;20035;-86
2023/07/25 12:15:24;;;;;;;3.75;0.93;;;19.40;99.90;;;;;;5113427;28;20534;-86
2023/07/25 12:17:51;;;;;;;5.38;1.00;;;19.60;99.90;;;;;;5127239;28;20039;-86
2023/07/25 12:20:19;;;;;;;3.30;0.80;;;19.70;99.90;;;;;;5147419;28;20048;-85
2023/07/25 12:22:47;;;;;;;2.85;0.80;;;19.60;99.90;;;;;;5130131;28;20040;-89
2023/07/25 12:25:18;;;;;;;3.85;0.80;;;19.50;99.90;;;;;;5113263;28;20526;-87
2023/07/25 12:27:49;;;;;;;2.28;0.70;;;19.10;99.90;;;;;;5142551;27;20511;-86
2023/07/25 12:30:16;;;;;;;3.00;0.80;;;19.20;99.90;;;;;;5149552;27;20035;-86
2023/07/25 12:32:43;;;;;;;3.38;0.60;;;19.30;99.90;;;;;;5129686;28;20050;-86
2023/07/25 12:35:11;;;;;;;2.75;0.70;;;19.20;99.90;;;;;;5096443;28;20051;-85
2023/07/25 12:37:38;;;;;;;3.75;0.80;;;19.20;99.90;;;;;;5117323;28;20507;-85
2023/07/25 12:40:05;;;;;;;2.83;0.73;;;19.30;99.90;;;;;;5096011;28;20043;-85
2023/07/25 12:42:32;;;;;;;2.05;0.70;;;19.40;99.90;;;;;;5112880;28;20065;-86
2023/07/25 12:45:05;;;;;;;2.17;0.52;;;19.60;99.90;;;;;;5112655;28;20036;-86
2023/07/25 12:47:33;;;;;;;2.15;0.70;;;19.70;99.90;;;;;;5099542;27;20464;-86
2023/07/25 12:50:00;;;;;;;5.10;0.90;;;19.70;99.90;;;;;;5129668;28;20048;-86